Time;durP1;ratioP1;P1;durP2;ratioP2;P2;SDS_P1;SDS_P2;PMS_P1;PMS_P2;Temp;Humidity;BMP_temperature;BMP_pressure;BME280_temperature;BME280_humidity;BME280_pressure;Samples;Min_cycle;Max_cycle;Signal;HPM_P1;HPM_P2
2022/04/14 00:06:16;;;;;;;13.52;5.97;;;;;;;7.53;61.25;101117.25;18431895;32;20394;-63
2022/04/14 00:16:21;;;;;;;14.82;7.75;;;;;;;7.44;61.82;101110.16;18431469;32;20164;-63
2022/04/14 00:26:24;;;;;;;13.85;7.45;;;;;;;7.05;62.26;101110.16;18431116;32;20108;-63
2022/04/14 00:36:29;;;;;;;15.38;7.70;;;;;;;7.32;62.51;101106.44;18431333;32;20111;-63
2022/04/14 00:46:33;;;;;;;17.02;8.48;;;;;;;7.18;63.31;101105.22;18431182;32;20163;-63
2022/04/14 00:56:37;;;;;;;12.73;6.10;;;;;;;7.06;64.11;101093.72;18429548;32;20150;-63
2022/04/14 01:06:41;;;;;;;13.73;6.70;;;;;;;6.90;63.39;101092.47;18428787;32;20097;-63
2022/04/14 01:16:46;;;;;;;14.13;7.00;;;;;;;6.83;63.66;101084.50;18428429;32;20451;-63
2022/04/14 01:26:51;;;;;;;12.93;6.60;;;;;;;6.47;64.06;101089.69;18427775;32;20096;-63
2022/04/14 01:36:54;;;;;;;15.35;7.95;;;;;;;6.78;63.43;101080.09;18427055;32;20121;-63
2022/04/14 01:46:58;;;;;;;15.95;8.73;;;;;;;6.43;65.31;101084.41;18426330;32;20097;-63
2022/04/14 01:57:02;;;;;;;14.80;7.78;;;;;;;6.42;64.76;101088.69;18434132;32;20120;-63
2022/04/14 02:07:09;;;;;;;12.13;6.90;;;;;;;6.22;64.97;101099.41;18435458;32;20428;-63
2022/04/14 02:17:12;;;;;;;14.48;7.50;;;;;;;6.04;65.58;101093.72;18435063;32;20425;-63
2022/04/14 02:27:17;;;;;;;15.32;6.53;;;;;;;6.09;65.47;101092.16;18434671;32;20097;-64
2022/04/14 02:37:20;;;;;;;15.32;7.80;;;;;;;6.03;65.78;101087.69;18434638;32;20178;-63
2022/04/14 02:47:24;;;;;;;12.32;6.43;;;;;;;5.78;66.31;101104.19;18433975;32;20413;-63
2022/04/14 02:57:28;;;;;;;14.25;6.82;;;;;;;5.61;66.99;101103.72;18434436;32;20101;-63
2022/04/14 03:07:33;;;;;;;14.82;7.65;;;;;;;5.73;66.03;101098.03;18434680;32;20081;-63
2022/04/14 03:17:36;;;;;;;12.23;6.07;;;;;;;5.69;65.87;101099.62;18433283;32;20097;-63
2022/04/14 03:27:41;;;;;;;13.70;6.47;;;;;;;5.13;66.57;101104.03;18433467;32;20114;-63
2022/04/14 03:37:44;;;;;;;11.05;5.40;;;;;;;5.31;66.55;101096.78;18431564;32;20159;-63
2022/04/14 03:47:49;;;;;;;12.35;6.03;;;;;;;4.98;67.56;101098.37;18432649;32;20108;-63
2022/04/14 03:57:53;;;;;;;15.18;7.22;;;;;;;4.92;66.92;101103.31;18432329;32;20120;-63
2022/04/14 04:07:57;;;;;;;15.25;6.40;;;;;;;4.98;67.44;101107.03;18432135;32;20097;-63
2022/04/14 04:18:00;;;;;;;15.10;6.70;;;;;;;4.88;67.03;101107.53;18430953;32;20105;-63
2022/04/14 04:28:05;;;;;;;11.93;5.60;;;;;;;5.29;66.33;101112.25;18431178;32;20088;-63
2022/04/14 04:38:08;;;;;;;14.65;7.00;;;;;;;4.82;66.44;101112.50;18431712;32;20101;-63
2022/04/14 04:48:13;;;;;;;14.07;8.55;;;;;;;4.84;66.55;101127.28;18429886;32;20369;-63
2022/04/14 04:58:16;;;;;;;14.27;6.93;;;;;;;4.75;67.19;101137.31;18429548;32;20093;-63
2022/04/14 05:08:21;;;;;;;15.57;8.10;;;;;;;5.39;66.62;101147.09;18428782;32;20475;-63
2022/04/14 05:18:24;;;;;;;12.30;6.93;;;;;;;5.77;67.36;101149.06;18426773;32;20101;-63
2022/04/14 05:28:28;;;;;;;14.23;8.93;;;;;;;6.04;65.02;101162.00;18433940;32;20107;-63
2022/04/14 05:38:32;;;;;;;19.17;8.48;;;;;;;6.35;65.52;101151.59;18436422;32;20158;-63
2022/04/14 05:48:36;;;;;;;16.33;8.65;;;;;;;8.09;63.39;101147.91;18435775;32;20089;-64
2022/04/14 05:58:39;;;;;;;15.63;7.37;;;;;;;10.86;59.13;101151.00;18434074;32;20379;-64
2022/04/14 06:08:45;;;;;;;13.70;7.07;;;;;;;13.85;49.62;101140.41;18435071;32;20089;-66
2022/04/14 06:18:48;;;;;;;11.50;6.25;;;;;;;16.02;41.86;101133.41;18432785;32;20793;-65
2022/04/14 06:28:53;;;;;;;10.98;5.47;;;;;;;17.78;38.29;101133.13;18432293;32;20135;-65
2022/04/14 06:38:56;;;;;;;12.27;6.03;;;;;;;19.91;34.26;101136.75;18431440;32;20093;-66
2022/04/14 06:49:01;;;;;;;8.82;4.32;;;;;;;22.13;29.66;101114.25;18432309;32;20118;-65
2022/04/14 06:59:04;;;;;;;11.73;5.10;;;;;;;24.29;25.61;101115.59;18417024;32;20086;-66
2022/04/14 07:09:08;;;;;;;11.65;4.65;;;;;;;25.63;23.11;101101.69;18368809;32;20101;-65
2022/04/14 07:19:11;;;;;;;8.90;4.93;;;;;;;27.66;18.60;101098.84;18368724;32;20097;-65
2022/04/14 07:29:16;;;;;;;7.70;3.80;;;;;;;28.30;18.40;101100.16;18354104;32;20119;-65
2022/04/14 07:39:19;;;;;;;10.30;4.18;;;;;;;25.91;20.24;101104.63;18355054;32;20137;-64
2022/04/14 07:49:24;;;;;;;9.23;3.37;;;;;;;23.44;22.79;101101.72;18348194;32;156108;-65
2022/04/14 07:59:27;;;;;;;10.05;3.62;;;;;;;22.11;22.83;101108.97;18366852;32;20085;-64
2022/04/14 08:09:31;;;;;;;9.88;3.33;;;;;;;21.50;23.26;101113.03;18366197;32;20101;-64
2022/04/14 08:19:38;;;;;;;6.75;2.97;;;;;;;20.97;24.64;101106.94;18352560;32;20456;-64
2022/04/14 08:29:43;;;;;;;8.25;3.35;;;;;;;20.37;24.00;101115.91;18391199;32;20163;-64
2022/04/14 08:39:46;;;;;;;7.80;2.47;;;;;;;20.63;23.83;101114.22;18427601;32;20117;-64
2022/04/14 08:49:53;;;;;;;10.77;3.22;;;;;;;20.83;22.44;101107.41;18434098;32;20152;-64
2022/04/14 08:59:59;;;;;;;7.90;2.70;;;;;;;20.54;24.68;101109.22;18496192;32;20365;-64
2022/04/14 09:10:06;;;;;;;5.65;2.75;;;;;;;20.74;22.14;101100.59;18481614;32;20154;-65
2022/04/14 09:20:28;;;;;;;5.65;2.50;;;;;;;20.71;21.89;101099.84;18497272;32;20713;-64
2022/04/14 09:30:33;;;;;;;6.95;2.53;;;;;;;21.69;19.13;101099.09;18498176;32;20121;-65
2022/04/14 09:40:37;;;;;;;6.68;2.70;;;;;;;23.02;18.90;101084.91;18453531;32;20088;-65
2022/04/14 09:50:43;;;;;;;4.70;1.80;;;;;;;23.83;17.53;101074.16;18434438;32;20123;-65
2022/04/14 10:00:47;;;;;;;4.12;1.35;;;;;;;24.05;16.19;101069.62;18434513;32;20107;-65
2022/04/14 10:11:07;;;;;;;3.70;1.90;;;;;;;24.75;13.99;101063.53;18433280;32;20092;-65
2022/04/14 10:21:10;;;;;;;3.87;1.65;;;;;;;24.86;14.93;101052.31;18433182;32;20107;-66
2022/04/14 10:31:17;;;;;;;3.30;1.37;;;;;;;25.44;13.82;101044.81;18419777;32;20170;-65
2022/04/14 10:41:24;;;;;;;3.70;1.52;;;;;;;24.88;15.05;101032.59;18433498;32;20081;-65
2022/04/14 10:51:29;;;;;;;3.10;1.50;;;;;;;24.45;14.38;101026.78;18432044;32;20092;-65
2022/04/14 11:01:55;;;;;;;5.65;1.98;;;;;;;23.95;14.81;101022.06;18412369;32;20124;-64
2022/04/14 11:12:03;;;;;;;4.15;2.00;;;;;;;23.32;13.65;101030.37;18418252;32;20097;-65
2022/04/14 11:22:08;;;;;;;2.90;1.70;;;;;;;23.00;15.54;101018.44;18432248;32;20142;-65
2022/04/14 11:32:14;;;;;;;4.05;1.90;;;;;;;23.10;15.84;101021.53;18431286;32;20104;-65
2022/04/14 11:42:37;;;;;;;3.42;1.62;;;;;;;22.76;16.64;100998.22;18431052;32;20124;-64
2022/04/14 11:52:44;;;;;;;3.37;1.58;;;;;;;23.24;15.09;100996.06;18430529;32;20103;-65
2022/04/14 12:02:52;;;;;;;3.37;1.58;;;;;;;23.81;14.22;100981.91;18430046;32;20077;-65
2022/04/14 12:13:06;;;;;;;3.17;1.75;;;;;;;23.64;15.75;100961.38;18417338;32;20436;-65
2022/04/14 12:23:10;;;;;;;4.65;1.90;;;;;;;23.39;16.23;100952.75;18414686;32;20138;-65
2022/04/14 12:33:15;;;;;;;5.22;1.85;;;;;;;23.62;15.25;100948.16;18428192;32;20119;-65
2022/04/14 12:43:22;;;;;;;3.45;1.73;;;;;;;24.01;14.48;100926.72;18414973;32;20105;-65
2022/04/14 12:53:27;;;;;;;3.80;1.73;;;;;;;23.93;14.38;100914.63;18412539;32;20109;-65
2022/04/14 13:03:45;;;;;;;3.35;1.40;;;;;;;24.38;15.25;100901.69;18428608;32;20107;-65
2022/04/14 13:13:49;;;;;;;4.40;2.00;;;;;;;24.80;13.88;100872.81;18409171;32;20703;-65
2022/04/14 13:23:53;;;;;;;5.25;1.80;;;;;;;24.15;13.98;100873.56;18411803;32;20107;-64
2022/04/14 13:33:57;;;;;;;3.90;1.67;;;;;;;24.20;14.56;100852.84;18427448;32;20346;-65
2022/04/14 13:44:00;;;;;;;5.10;1.50;;;;;;;24.49;14.88;100857.56;18427363;32;20116;-65
2022/04/14 13:54:08;;;;;;;3.47;1.65;;;;;;;24.47;14.41;100851.47;18435840;32;20073;-65
2022/04/14 14:04:11;;;;;;;3.35;1.58;;;;;;;24.03;14.53;100840.34;18422365;32;20720;-64
2022/04/14 14:14:16;;;;;;;3.15;1.30;;;;;;;24.12;14.82;100817.72;18421147;32;20129;-65
2022/04/14 14:24:19;;;;;;;4.65;2.03;;;;;;;22.85;15.29;100812.34;18435789;32;20123;-64
2022/04/14 14:34:24;;;;;;;3.90;1.90;;;;;;;23.82;16.41;100813.03;18433393;32;20442;-65
2022/04/14 14:44:27;;;;;;;3.28;1.65;;;;;;;23.72;14.12;100809.94;18419156;32;20107;-64
2022/04/14 14:54:32;;;;;;;3.60;1.55;;;;;;;23.42;14.51;100803.41;18433931;32;20105;-64
2022/04/14 15:04:37;;;;;;;3.67;1.55;;;;;;;23.59;15.34;100801.72;18419775;32;20397;-64
2022/04/14 15:14:41;;;;;;;4.47;1.98;;;;;;;23.37;15.14;100792.16;18433705;32;20096;-65
2022/04/14 15:24:45;;;;;;;4.40;1.45;;;;;;;23.79;14.02;100791.84;18433138;32;20093;-64
2022/04/14 15:34:49;;;;;;;5.55;2.00;;;;;;;24.00;14.67;100791.66;18433221;32;20139;-65
2022/04/14 15:44:52;;;;;;;3.03;1.60;;;;;;;23.38;13.71;100769.03;18418618;32;20097;-64
2022/04/14 15:54:58;;;;;;;3.87;1.52;;;;;;;24.19;14.17;100776.47;18432284;32;20111;-64
2022/04/14 16:05:01;;;;;;;3.10;1.58;;;;;;;24.40;13.22;100762.87;18432872;32;20089;-65
2022/04/14 16:15:06;;;;;;;3.47;1.48;;;;;;;24.10;12.46;100755.63;18430539;32;20089;-65
2022/04/14 16:25:10;;;;;;;2.35;1.30;;;;;;;23.63;13.07;100760.66;18416152;32;20105;-65
2022/04/14 16:35:14;;;;;;;6.20;1.45;;;;;;;23.37;13.10;100762.84;18430823;32;20101;-64
2022/04/14 16:45:17;;;;;;;7.45;1.65;;;;;;;23.46;14.61;100758.00;18417139;32;20120;-64
2022/04/14 16:55:22;;;;;;;3.83;1.70;;;;;;;23.03;16.08;100759.16;18415249;32;20119;-64
2022/04/14 17:05:25;;;;;;;3.92;1.30;;;;;;;22.35;17.43;100757.03;18429045;32;20139;-64
2022/04/14 17:15:30;;;;;;;5.60;1.42;;;;;;;22.26;16.71;100769.78;18429033;32;20093;-64
2022/04/14 17:25:33;;;;;;;4.70;1.95;;;;;;;21.75;17.42;100775.56;18435320;32;20657;-64
2022/04/14 17:35:38;;;;;;;4.30;2.10;;;;;;;21.01;19.60;100781.25;18435849;32;20096;-64
2022/04/14 17:45:41;;;;;;;7.62;1.95;;;;;;;20.09;22.26;100792.63;18420810;32;20089;-64
2022/04/14 17:55:46;;;;;;;4.10;1.73;;;;;;;18.95;24.94;100796.28;18421193;32;20109;-64
2022/04/14 18:05:49;;;;;;;4.45;1.58;;;;;;;18.02;25.60;100810.34;18435394;32;20393;-65
2022/04/14 18:15:54;;;;;;;3.15;1.33;;;;;;;17.29;29.89;100820.09;18421993;32;20101;-64
2022/04/14 18:25:57;;;;;;;4.93;1.60;;;;;;;16.40;29.59;100828.97;18434828;32;20729;-64
2022/04/14 18:36:02;;;;;;;3.87;1.27;;;;;;;15.86;31.92;100836.09;18435109;32;20467;-65
2022/04/14 18:46:05;;;;;;;4.43;2.03;;;;;;;15.18;34.07;100837.16;18434124;32;20464;-64
2022/04/14 18:56:10;;;;;;;4.80;1.80;;;;;;;14.72;34.50;100842.12;18433903;32;20115;-64
2022/04/14 19:06:13;;;;;;;5.90;2.00;;;;;;;14.27;37.01;100840.84;18385683;32;20116;-65
2022/04/14 19:16:17;;;;;;;5.35;2.30;;;;;;;13.81;38.10;100849.16;18418545;32;20116;-64
2022/04/14 19:26:21;;;;;;;4.47;2.22;;;;;;;13.51;37.60;100854.63;18432782;32;20101;-65
2022/04/14 19:36:29;;;;;;;8.15;3.15;;;;;;;13.04;39.92;100861.88;18432861;32;20112;-65
2022/04/14 19:46:34;;;;;;;7.05;3.10;;;;;;;12.54;41.65;100862.09;18416571;32;20401;-65
2022/04/14 19:56:38;;;;;;;6.53;2.92;;;;;;;12.40;41.12;100866.47;18432400;32;20133;-64
2022/04/14 20:06:42;;;;;;;9.48;3.08;;;;;;;11.96;43.22;100871.75;18431969;32;20101;-64
2022/04/14 20:16:46;;;;;;;9.00;3.83;;;;;;;11.54;43.87;100873.47;18431646;32;20147;-68
2022/04/14 20:26:49;;;;;;;8.57;3.58;;;;;;;11.24;44.51;100869.06;18430919;32;20089;-68
2022/04/14 20:36:54;;;;;;;11.65;3.47;;;;;;;11.08;44.56;100864.63;18416672;32;20111;-68
2022/04/14 20:46:57;;;;;;;13.75;4.95;;;;;;;10.71;45.96;100868.00;18430466;32;20463;-67
2022/04/14 20:57:02;;;;;;;10.85;4.50;;;;;;;10.48;45.70;100878.31;18414514;32;20501;-67
2022/04/14 21:07:05;;;;;;;13.62;5.40;;;;;;;10.21;48.22;100885.06;18415666;32;20421;-67
2022/04/14 21:17:10;;;;;;;13.00;5.32;;;;;;;10.17;48.06;100896.34;18428720;32;20366;-67
2022/04/14 21:27:13;;;;;;;17.83;6.00;;;;;;;9.76;50.18;100898.59;18428139;32;20101;-67
2022/04/14 21:37:18;;;;;;;38.90;15.00;;;;;;;9.65;50.03;100900.25;18428046;32;20089;-65
2022/04/14 21:47:21;;;;;;;20.10;6.43;;;;;;;9.69;51.68;100902.03;18411605;32;20594;-65
2022/04/14 21:57:26;;;;;;;14.43;6.22;;;;;;;9.19;52.82;100911.91;18426122;32;20096;-65
2022/04/14 22:07:29;;;;;;;19.17;6.65;;;;;;;8.87;54.45;100912.41;18428735;32;20108;-65
2022/04/14 22:17:33;;;;;;;15.75;6.50;;;;;;;8.87;54.25;100910.69;18421022;32;20111;-65
2022/04/14 22:27:37;;;;;;;16.87;7.18;;;;;;;8.40;53.82;100909.13;18435008;32;20112;-65
2022/04/14 22:37:41;;;;;;;12.73;5.20;;;;;;;8.30;53.28;100912.44;18435728;32;20109;-68
2022/04/14 22:47:44;;;;;;;14.98;5.35;;;;;;;8.31;54.18;100903.78;18434473;32;20105;-67
2022/04/14 22:57:49;;;;;;;12.98;5.10;;;;;;;7.97;54.85;100906.72;18434096;32;20096;-68
2022/04/14 23:07:52;;;;;;;11.95;5.20;;;;;;;7.88;57.05;100902.25;18419327;32;20115;-68
2022/04/14 23:17:56;;;;;;;12.40;4.62;;;;;;;7.83;56.94;100890.87;18418748;32;20101;-67
2022/04/14 23:28:00;;;;;;;10.25;4.80;;;;;;;7.49;57.33;100882.47;18433189;32;20108;-67
2022/04/14 23:38:05;;;;;;;13.43;5.57;;;;;;;7.37;58.31;100890.94;18432867;32;20104;-67
2022/04/14 23:48:08;;;;;;;14.15;5.25;;;;;;;7.30;59.11;100889.97;18432481;32;20108;-67
2022/04/14 23:58:13;;;;;;;11.02;5.45;;;;;;;7.47;58.87;100889.38;18432252;32;20385;-66
